createdAt,value
2018-06-11T00:01:41.085Z,84.72
2018-06-11T00:04:09.840Z,84.50
2018-06-11T00:06:38.467Z,84.08
2018-06-11T00:09:08.102Z,83.90
2018-06-11T00:11:37.126Z,83.29
2018-06-11T00:14:05.819Z,81.64
2018-06-11T00:16:34.539Z,81.56
2018-06-11T00:19:03.213Z,81.06
2018-06-11T00:21:32.336Z,80.81
2018-06-11T00:24:01.013Z,80.65
2018-06-11T00:26:29.677Z,80.82
2018-06-11T00:28:58.343Z,80.86
2018-06-11T00:31:27.031Z,80.46
2018-06-11T00:33:55.722Z,80.88
2018-06-11T00:36:24.443Z,80.77
2018-06-11T00:38:53.122Z,80.37
2018-06-11T00:41:21.813Z,80.46
2018-06-11T00:43:50.468Z,80.63
2018-06-11T00:46:19.152Z,80.42
2018-06-11T00:48:47.827Z,80.55
2018-06-11T00:51:16.508Z,80.63
2018-06-11T00:53:45.208Z,80.99
2018-06-11T00:56:13.871Z,81.01
2018-06-11T00:58:42.579Z,80.94
2018-06-11T01:01:11.400Z,80.89
2018-06-11T01:03:40.086Z,80.35
2018-06-11T01:06:08.793Z,80.34
2018-06-11T01:08:37.505Z,79.94
2018-06-11T01:11:06.245Z,79.57
2018-06-11T01:13:34.910Z,79.78
2018-06-11T01:16:03.654Z,80.07
2018-06-11T01:18:32.273Z,80.08
2018-06-11T01:21:01.013Z,80.42
2018-06-11T01:23:29.723Z,80.80
2018-06-11T01:25:58.976Z,80.96
2018-06-11T01:28:27.676Z,81.12
2018-06-11T01:30:56.416Z,80.68
2018-06-11T01:33:25.116Z,80.45
2018-06-11T01:35:53.823Z,80.54
2018-06-11T01:38:22.891Z,79.55
2018-06-11T01:40:51.556Z,78.55
2018-06-11T01:43:20.265Z,78.46
2018-06-11T01:45:48.984Z,77.97
2018-06-11T01:48:17.771Z,77.45
2018-06-11T01:50:46.483Z,77.01
2018-06-11T01:53:15.155Z,76.91
2018-06-11T01:55:43.824Z,76.61
2018-06-11T01:58:12.548Z,76.80
2018-06-11T02:00:41.212Z,76.81
2018-06-11T02:03:09.954Z,77.11
2018-06-11T02:05:38.720Z,76.68
2018-06-11T02:08:07.463Z,76.84
2018-06-11T02:10:36.222Z,76.29
2018-06-11T02:13:04.964Z,77.12
2018-06-11T02:15:33.703Z,77.23
2018-06-11T02:18:02.417Z,77.33
2018-06-11T02:20:31.155Z,77.75
2018-06-11T02:22:59.884Z,77.33
2018-06-11T02:25:30.535Z,77.87
2018-06-11T02:27:59.204Z,77.70
2018-06-11T02:30:27.932Z,78.00
2018-06-11T02:32:56.649Z,77.75
2018-06-11T02:35:25.368Z,77.96
2018-06-11T02:37:54.104Z,78.06
2018-06-11T02:40:22.803Z,78.10
2018-06-11T02:42:51.530Z,78.14
2018-06-11T02:45:20.192Z,77.66
2018-06-11T02:47:48.924Z,77.56
2018-06-11T02:50:17.713Z,77.38
2018-06-11T02:52:46.427Z,77.12
2018-06-11T02:55:15.069Z,77.07
2018-06-11T02:57:43.821Z,76.91
2018-06-11T03:00:12.568Z,76.89
2018-06-11T03:02:41.324Z,76.98
2018-06-11T03:05:10.037Z,76.74
2018-06-11T03:07:38.801Z,76.52
2018-06-11T03:10:07.498Z,76.01
2018-06-11T03:12:36.280Z,76.29
2018-06-11T03:15:05.167Z,76.04
2018-06-11T03:17:33.850Z,75.38
2018-06-11T03:20:02.587Z,75.17
2018-06-11T03:22:31.402Z,74.41
2018-06-11T03:25:00.121Z,74.24
2018-06-11T03:27:29.009Z,73.52
2018-06-11T03:29:57.698Z,72.87
2018-06-11T03:32:26.434Z,72.93
2018-06-11T03:34:55.172Z,72.38
2018-06-11T03:37:23.875Z,71.98
2018-06-11T03:39:52.598Z,71.33
2018-06-11T03:42:21.323Z,70.82
2018-06-11T03:44:50.010Z,70.73
2018-06-11T03:47:18.722Z,70.48
2018-06-11T03:49:47.440Z,70.27
2018-06-11T03:52:16.139Z,70.29
2018-06-11T03:54:44.921Z,69.14
2018-06-11T03:57:13.600Z,68.89
2018-06-11T03:59:42.748Z,68.61
2018-06-11T04:02:11.413Z,68.38
2018-06-11T04:04:40.276Z,68.19
2018-06-11T04:07:09.049Z,68.42
2018-06-11T04:09:37.820Z,68.66
2018-06-11T04:12:06.540Z,68.69
2018-06-11T04:14:35.389Z,68.71
2018-06-11T04:17:04.065Z,68.33
2018-06-11T04:19:32.807Z,68.49
2018-06-11T04:22:01.543Z,68.78
2018-06-11T04:24:30.220Z,68.34
2018-06-11T04:26:58.933Z,68.74
2018-06-11T04:29:27.616Z,68.67
2018-06-11T04:31:56.295Z,68.40
2018-06-11T04:34:24.967Z,68.06
2018-06-11T04:36:53.779Z,68.47
2018-06-11T04:39:22.442Z,68.12
2018-06-11T04:44:27.467Z,67.37
2018-06-11T04:46:56.444Z,67.20
2018-06-11T04:49:25.147Z,66.77
2018-06-11T04:51:53.862Z,67.74
2018-06-11T04:54:22.609Z,64.71
2018-06-11T04:56:51.334Z,64.10
2018-06-11T04:59:20.037Z,64.51
2018-06-11T05:01:48.771Z,63.93
2018-06-11T05:04:17.498Z,63.64
2018-06-11T05:06:46.197Z,63.53
2018-06-11T05:09:14.868Z,63.75
2018-06-11T05:11:43.549Z,63.78
2018-06-11T05:14:12.239Z,62.98
2018-06-11T05:16:41.005Z,62.69
2018-06-11T05:19:09.719Z,62.96
2018-06-11T05:21:38.429Z,62.97
2018-06-11T05:24:07.164Z,63.33
2018-06-11T05:26:35.932Z,62.86
2018-06-11T05:29:04.625Z,64.55
2018-06-11T05:31:33.300Z,63.81
2018-06-11T05:34:06.899Z,63.89
2018-06-11T05:36:35.564Z,64.30
2018-06-11T05:39:06.431Z,64.75
2018-06-11T05:41:35.394Z,65.22
2018-06-11T05:44:04.123Z,64.49
2018-06-11T05:46:32.946Z,64.93
2018-06-11T05:49:20.139Z,65.35
2018-06-11T05:51:50.530Z,65.47
2018-06-11T05:54:20.684Z,65.80
2018-06-11T05:56:50.163Z,66.02
2018-06-11T05:59:20.367Z,66.24
2018-06-11T06:01:49.331Z,66.22
2018-06-11T06:04:18.957Z,66.03
2018-06-11T06:06:47.782Z,66.54
2018-06-11T06:09:16.701Z,66.42
2018-06-11T06:11:45.691Z,65.91
2018-06-11T06:14:14.418Z,65.93
2018-06-11T06:16:44.176Z,65.88
2018-06-11T06:19:12.893Z,65.79
2018-06-11T06:21:41.573Z,66.54
2018-06-11T06:24:10.251Z,67.06
2018-06-11T06:26:39.027Z,66.86
2018-06-11T06:29:08.391Z,67.08
2018-06-11T06:31:37.166Z,67.22
2018-06-11T06:34:06.193Z,67.89
2018-06-11T06:36:36.024Z,66.66
2018-06-11T06:39:07.977Z,67.89
2018-06-11T06:41:36.845Z,68.18
2018-06-11T06:44:05.654Z,67.89
2018-06-11T06:46:34.443Z,68.47
2018-06-11T06:49:03.211Z,68.72
2018-06-11T06:51:31.887Z,68.56
2018-06-11T06:54:00.578Z,69.02
2018-06-11T06:56:29.255Z,69.70
2018-06-11T06:58:57.976Z,69.87
2018-06-11T07:01:26.689Z,71.26
2018-06-11T07:03:55.437Z,69.94
2018-06-11T07:06:24.811Z,69.01
2018-06-11T07:08:53.489Z,68.79
2018-06-11T07:11:22.175Z,69.38
2018-06-11T07:13:50.892Z,68.92
2018-06-11T07:16:19.624Z,68.77
2018-06-11T07:18:48.348Z,68.32
2018-06-11T07:21:17.095Z,67.75
2018-06-11T07:23:45.801Z,67.54
2018-06-11T07:26:14.521Z,68.25
2018-06-11T07:28:43.223Z,67.83
2018-06-11T07:31:11.922Z,70.81
2018-06-11T07:33:40.608Z,66.86
2018-06-11T07:36:09.321Z,66.62
2018-06-11T07:38:38.045Z,65.98
2018-06-11T07:41:07.059Z,66.14
2018-06-11T07:43:35.776Z,64.81
2018-06-11T07:46:04.530Z,64.94
2018-06-11T07:48:33.288Z,64.14
2018-06-11T07:51:01.992Z,63.88
2018-06-11T07:53:30.692Z,64.54
2018-06-11T07:55:59.343Z,64.46
2018-06-11T07:58:28.150Z,64.82
2018-06-11T08:00:56.914Z,65.70
2018-06-11T08:03:25.600Z,66.34
2018-06-11T08:05:54.273Z,66.80
2018-06-11T08:08:23.183Z,64.35
2018-06-11T08:10:51.908Z,63.43
2018-06-11T08:13:20.650Z,64.32
2018-06-11T08:15:49.276Z,63.86
2018-06-11T08:18:17.960Z,62.90
2018-06-11T08:20:46.709Z,63.56
2018-06-11T08:23:15.359Z,63.15
2018-06-11T08:25:44.047Z,62.23
2018-06-11T08:28:12.708Z,62.49
2018-06-11T08:30:41.393Z,62.18
2018-06-11T08:33:10.080Z,60.58
2018-06-11T08:35:38.743Z,59.85
2018-06-11T08:38:07.497Z,59.23
2018-06-11T08:40:36.207Z,57.21
2018-06-11T08:43:04.889Z,56.55
2018-06-11T08:45:33.588Z,56.00
2018-06-11T08:48:02.299Z,56.26
2018-06-11T08:50:31.011Z,55.66
2018-06-11T08:52:59.716Z,56.37
2018-06-11T08:55:28.436Z,56.64
2018-06-11T08:57:57.121Z,57.57
2018-06-11T09:00:25.774Z,58.91
2018-06-11T09:02:54.484Z,60.04
2018-06-11T09:05:23.276Z,60.26
2018-06-11T09:07:51.975Z,60.27
2018-06-11T09:10:21.117Z,60.12
2018-06-11T09:12:49.842Z,60.59
2018-06-11T09:15:19.574Z,60.70
2018-06-11T09:17:48.296Z,60.63
2018-06-11T09:20:17.030Z,60.40
2018-06-11T09:22:45.787Z,60.28
2018-06-11T09:25:14.457Z,59.91
2018-06-11T09:27:43.161Z,60.14
2018-06-11T09:30:11.857Z,60.13
2018-06-11T09:32:40.572Z,59.30
2018-06-11T09:35:09.224Z,58.90
2018-06-11T09:37:37.939Z,58.85
2018-06-11T09:40:06.626Z,58.62
2018-06-11T09:42:35.432Z,58.67
2018-06-11T09:45:04.176Z,59.63
2018-06-11T09:47:32.864Z,59.15
2018-06-11T09:50:01.562Z,58.43
2018-06-11T09:52:30.314Z,58.61
2018-06-11T09:54:59.006Z,57.61
2018-06-11T09:57:27.743Z,59.03
2018-06-11T09:59:56.408Z,59.30
2018-06-11T10:02:25.102Z,59.36
2018-06-11T10:04:53.786Z,59.26
2018-06-11T10:07:22.472Z,58.27
2018-06-11T10:09:51.226Z,57.84
2018-06-11T10:12:19.952Z,57.11
2018-06-11T10:14:48.604Z,56.61
2018-06-11T10:17:17.318Z,55.63
2018-06-11T10:19:46.020Z,55.07
2018-06-11T10:22:14.858Z,53.62
2018-06-11T10:24:43.515Z,52.44
2018-06-11T10:27:12.273Z,52.80
2018-06-11T10:29:40.957Z,53.24
2018-06-11T10:32:09.841Z,53.01
2018-06-11T10:34:38.535Z,52.80
2018-06-11T10:37:07.179Z,53.11
2018-06-11T10:39:35.929Z,53.84
2018-06-11T10:42:04.666Z,54.48
2018-06-11T10:44:33.394Z,53.70
2018-06-11T10:47:02.147Z,53.86
2018-06-11T10:49:30.905Z,52.63
2018-06-11T10:51:59.667Z,50.98
2018-06-11T10:54:29.053Z,50.36
2018-06-11T10:56:57.825Z,51.38
2018-06-11T10:59:26.513Z,50.55
2018-06-11T11:01:55.179Z,49.97
2018-06-11T11:04:23.891Z,49.94
2018-06-11T11:06:52.619Z,50.35
2018-06-11T11:09:21.319Z,51.70
2018-06-11T11:11:50.062Z,52.37
2018-06-11T11:14:18.811Z,53.54
2018-06-11T11:16:47.504Z,52.86
2018-06-11T11:19:16.196Z,52.45
2018-06-11T11:21:44.964Z,51.51
2018-06-11T11:24:13.694Z,51.67
2018-06-11T11:26:42.524Z,53.17
2018-06-11T11:29:11.281Z,55.57
2018-06-11T11:31:40.018Z,56.43
2018-06-11T11:34:08.750Z,56.69
2018-06-11T11:36:37.543Z,55.63
2018-06-11T11:39:08.058Z,55.24
2018-06-11T11:41:36.792Z,54.62
2018-06-11T11:44:05.534Z,54.11
2018-06-11T11:46:34.225Z,53.88
2018-06-11T11:49:02.923Z,54.48
2018-06-11T11:51:31.600Z,53.09
2018-06-11T11:54:00.297Z,52.31
2018-06-11T11:56:28.991Z,50.20
2018-06-11T11:58:57.652Z,50.60
2018-06-11T12:01:26.374Z,50.42
2018-06-11T12:03:55.064Z,49.57
2018-06-11T12:06:23.797Z,50.55
2018-06-11T12:08:52.506Z,50.84
2018-06-11T12:11:21.172Z,51.67
2018-06-11T12:13:49.859Z,51.45
2018-06-11T12:16:18.584Z,50.52
2018-06-11T12:18:47.346Z,50.60
2018-06-11T12:21:16.016Z,49.80
2018-06-11T12:23:44.684Z,51.37
2018-06-11T12:26:13.380Z,53.12
2018-06-11T12:28:42.154Z,53.53
2018-06-11T12:31:10.860Z,52.75
2018-06-11T12:33:39.699Z,52.52
2018-06-11T12:36:08.411Z,51.90
2018-06-11T12:38:37.186Z,52.66
2018-06-11T12:41:06.035Z,52.62
2018-06-11T12:43:34.726Z,51.45
2018-06-11T12:46:03.514Z,50.81
2018-06-11T12:48:32.297Z,50.61
2018-06-11T12:51:01.069Z,52.11
2018-06-11T12:53:29.850Z,52.44
2018-06-11T12:56:06.354Z,52.37
2018-06-11T12:58:35.048Z,52.62
2018-06-11T13:01:03.941Z,52.12
2018-06-11T13:03:32.749Z,51.25
2018-06-11T13:06:01.476Z,50.82
2018-06-11T13:08:30.188Z,51.13
2018-06-11T13:10:58.871Z,50.99
2018-06-11T13:13:27.639Z,51.03
2018-06-11T13:15:56.351Z,51.47
2018-06-11T13:18:25.159Z,51.77
2018-06-11T13:20:53.880Z,51.72
2018-06-11T13:23:22.545Z,51.43
2018-06-11T13:25:51.251Z,51.17
2018-06-11T13:28:20.028Z,51.12
2018-06-11T13:30:48.767Z,51.74
2018-06-11T13:33:17.618Z,51.22
2018-06-11T13:35:47.092Z,50.65
2018-06-11T13:38:15.919Z,51.39
2018-06-11T13:40:44.854Z,50.96
2018-06-11T13:43:13.930Z,50.84
2018-06-11T13:45:42.960Z,50.56
2018-06-11T13:48:11.843Z,50.87
2018-06-11T13:50:40.489Z,51.09
2018-06-11T13:53:09.783Z,50.94
2018-06-11T13:55:38.648Z,50.87
2018-06-11T13:58:07.576Z,50.72
2018-06-11T14:00:36.378Z,53.52
2018-06-11T14:03:05.323Z,52.47
2018-06-11T14:05:34.113Z,53.22
2018-06-11T14:08:02.918Z,50.97
2018-06-11T14:10:31.643Z,51.35
2018-06-11T14:13:00.339Z,51.51
2018-06-11T14:15:29.153Z,51.57
2018-06-11T14:17:58.299Z,51.77
2018-06-11T14:20:26.978Z,51.74
2018-06-11T14:22:55.667Z,52.79
2018-06-11T14:25:24.399Z,52.92
2018-06-11T14:27:53.060Z,53.09
2018-06-11T14:30:21.822Z,52.53
2018-06-11T14:32:50.536Z,52.45
2018-06-11T14:35:19.216Z,53.16
2018-06-11T14:37:47.951Z,52.69
2018-06-11T14:40:16.641Z,52.91
2018-06-11T14:42:45.420Z,52.57
2018-06-11T14:45:14.148Z,51.93
2018-06-11T14:47:42.888Z,52.67
2018-06-11T14:50:11.927Z,53.02
2018-06-11T14:52:40.661Z,53.54
2018-06-11T14:55:09.338Z,53.03
2018-06-11T14:57:38.060Z,53.25
2018-06-11T15:00:07.147Z,53.98
2018-06-11T15:02:35.817Z,53.49
2018-06-11T15:05:04.512Z,52.81
2018-06-11T15:07:33.236Z,52.31
2018-06-11T15:10:02.584Z,52.93
2018-06-11T15:12:31.276Z,52.52
2018-06-11T15:14:59.976Z,52.59
2018-06-11T15:17:28.726Z,53.20
2018-06-11T15:19:57.412Z,54.12
2018-06-11T15:22:26.105Z,54.12
2018-06-11T15:24:54.851Z,54.02
2018-06-11T15:27:23.617Z,54.37
2018-06-11T15:29:52.518Z,55.20
2018-06-11T15:32:21.316Z,54.70
2018-06-11T15:34:50.029Z,54.96
2018-06-11T15:37:18.740Z,54.34
2018-06-11T15:39:47.547Z,54.26
2018-06-11T15:42:16.615Z,55.17
2018-06-11T15:44:45.489Z,54.46
2018-06-11T15:47:14.197Z,54.51
2018-06-11T15:49:43.661Z,54.83
2018-06-11T15:52:12.394Z,53.80
2018-06-11T15:54:41.551Z,54.76
2018-06-11T15:57:10.309Z,54.27
2018-06-11T15:59:39.688Z,53.96
2018-06-11T16:02:08.424Z,54.61
2018-06-11T16:04:37.838Z,55.44
2018-06-11T16:07:06.866Z,54.90
2018-06-11T16:09:35.969Z,55.79
2018-06-11T16:12:05.135Z,56.95
2018-06-11T16:14:33.970Z,57.47
2018-06-11T16:17:03.094Z,56.97
2018-06-11T16:19:32.090Z,56.99
2018-06-11T16:22:00.983Z,56.95
2018-06-11T16:24:30.511Z,56.08
2018-06-11T16:27:00.142Z,56.69
2018-06-11T16:29:30.729Z,57.30
2018-06-11T16:31:59.435Z,57.98
2018-06-11T16:34:28.139Z,57.78
2018-06-11T16:36:57.131Z,57.30
2018-06-11T16:39:25.779Z,57.08
2018-06-11T16:41:54.512Z,56.77
2018-06-11T16:44:23.237Z,57.30
2018-06-11T16:46:51.884Z,57.66
2018-06-11T16:49:20.635Z,57.28
2018-06-11T16:51:49.483Z,57.46
2018-06-11T16:54:18.335Z,57.27
2018-06-11T16:56:47.157Z,57.40
2018-06-11T16:59:17.102Z,57.35
2018-06-11T17:01:46.521Z,57.63
2018-06-11T17:04:15.396Z,57.23
2018-06-11T17:06:44.496Z,57.73
2018-06-11T17:09:13.235Z,58.28
2018-06-11T17:11:42.183Z,58.28
2018-06-11T17:14:11.113Z,58.22
2018-06-11T17:16:40.996Z,58.33
2018-06-11T17:19:10.273Z,58.09
2018-06-11T17:21:39.301Z,57.85
2018-06-11T17:24:08.005Z,57.97
2018-06-11T17:26:36.700Z,58.51
2018-06-11T17:29:05.380Z,58.92
2018-06-11T17:31:34.117Z,59.65
2018-06-11T17:34:02.795Z,59.67
2018-06-11T17:36:31.539Z,59.30
2018-06-11T17:39:00.244Z,59.59
2018-06-11T17:41:28.912Z,59.68
2018-06-11T17:43:57.780Z,60.06
2018-06-11T17:46:26.435Z,60.29
2018-06-11T17:48:55.104Z,60.55
2018-06-11T17:51:23.779Z,60.43
2018-06-11T17:53:52.515Z,60.56
2018-06-11T17:56:21.175Z,60.73
2018-06-11T17:58:49.947Z,60.46
2018-06-11T18:01:18.626Z,60.81
2018-06-11T18:03:47.251Z,60.90
2018-06-11T18:06:15.994Z,61.25
2018-06-11T18:08:44.718Z,61.23
2018-06-11T18:11:13.423Z,61.99
2018-06-11T18:13:42.055Z,62.74
2018-06-11T18:16:10.824Z,62.64
2018-06-11T18:18:39.485Z,62.20
2018-06-11T18:21:08.118Z,62.27
2018-06-11T18:23:37.396Z,62.20
2018-06-11T18:26:06.083Z,62.55
2018-06-11T18:28:34.716Z,62.80
2018-06-11T18:31:03.448Z,62.55
2018-06-11T18:33:32.111Z,62.73
2018-06-11T18:36:00.770Z,63.05
2018-06-11T18:38:29.511Z,62.64
2018-06-11T18:40:58.392Z,62.89
2018-06-11T18:43:27.221Z,63.35
2018-06-11T18:45:55.872Z,63.55
2018-06-11T18:48:24.926Z,63.35
2018-06-11T18:50:53.627Z,64.15
2018-06-11T18:53:22.272Z,64.68
2018-06-11T18:55:50.955Z,65.16
2018-06-11T18:58:19.694Z,65.78
2018-06-11T19:00:48.431Z,66.06
2018-06-11T19:03:17.368Z,66.11
2018-06-11T19:05:46.233Z,65.98
2018-06-11T19:08:14.970Z,66.31
2018-06-11T19:10:43.641Z,66.48
2018-06-11T19:13:12.377Z,66.67
2018-06-11T19:15:41.206Z,66.96
2018-06-11T19:18:09.877Z,67.58
2018-06-11T19:20:38.534Z,67.91
2018-06-11T19:23:07.213Z,67.79
2018-06-11T19:25:35.835Z,67.74
2018-06-11T19:28:04.552Z,68.02
2018-06-11T19:30:33.184Z,67.74
2018-06-11T19:33:01.916Z,68.77
2018-06-11T19:35:30.598Z,68.57
2018-06-11T19:37:59.267Z,70.51
2018-06-11T19:40:28.395Z,68.59
2018-06-11T19:42:57.082Z,67.56
2018-06-11T19:45:25.833Z,66.83
2018-06-11T19:47:54.584Z,66.35
2018-06-11T19:50:23.316Z,65.87
2018-06-11T19:52:51.968Z,66.24
2018-06-11T19:55:20.657Z,67.39
2018-06-11T19:57:49.458Z,67.64
2018-06-11T20:00:18.366Z,68.03
2018-06-11T20:02:47.143Z,68.35
2018-06-11T20:05:16.575Z,68.61
2018-06-11T20:07:45.623Z,68.54
2018-06-11T20:10:14.309Z,68.83
2018-06-11T20:12:42.978Z,68.57
2018-06-11T20:15:11.765Z,68.73
2018-06-11T20:17:40.453Z,68.66
2018-06-11T20:20:09.203Z,68.28
2018-06-11T20:22:38.563Z,68.01
2018-06-11T20:25:07.245Z,68.01
2018-06-11T20:27:36.028Z,66.96
2018-06-11T20:30:05.058Z,66.61
2018-06-11T20:32:33.851Z,66.14
2018-06-11T20:35:02.597Z,65.81
2018-06-11T20:37:31.255Z,66.45
2018-06-11T20:40:00.041Z,66.17
2018-06-11T20:42:28.743Z,66.12
2018-06-11T20:44:57.395Z,65.58
2018-06-11T20:47:26.092Z,65.89
2018-06-11T20:49:54.993Z,65.64
2018-06-11T20:52:23.683Z,65.58
2018-06-11T20:54:52.381Z,65.13
2018-06-11T20:57:21.177Z,65.67
2018-06-11T20:59:49.888Z,65.48
2018-06-11T21:02:18.698Z,65.24
2018-06-11T21:04:47.352Z,64.91
2018-06-11T21:07:16.065Z,64.79
2018-06-11T21:09:44.817Z,64.50
2018-06-11T21:12:13.569Z,64.99
2018-06-11T21:14:42.428Z,64.95
2018-06-11T21:17:11.096Z,65.28
2018-06-11T21:19:39.880Z,66.06
2018-06-11T21:22:09.227Z,66.06
2018-06-11T21:24:38.051Z,65.79
2018-06-11T21:27:06.764Z,66.00
2018-06-11T21:29:35.622Z,65.87
2018-06-11T21:32:04.412Z,65.87
2018-06-11T21:34:33.150Z,65.65
2018-06-11T21:37:01.832Z,65.48
2018-06-11T21:39:31.813Z,65.70
2018-06-11T21:42:00.549Z,65.71
2018-06-11T21:44:29.367Z,65.53
2018-06-11T21:46:58.113Z,65.46
2018-06-11T21:49:26.838Z,65.28
2018-06-11T21:51:55.648Z,65.31
2018-06-11T21:54:24.354Z,65.38
2018-06-11T21:56:53.759Z,66.09
2018-06-11T21:59:22.471Z,65.66
2018-06-11T22:01:55.764Z,65.39
2018-06-11T22:04:24.553Z,66.13
2018-06-11T22:06:53.266Z,65.81
2018-06-11T22:09:21.937Z,65.88
2018-06-11T22:11:50.709Z,65.51
2018-06-11T22:14:19.493Z,65.45
2018-06-11T22:16:48.353Z,65.48
2018-06-11T22:19:17.081Z,64.48
2018-06-11T22:21:45.831Z,64.65
2018-06-11T22:24:14.471Z,64.34
2018-06-11T22:26:43.165Z,65.00
2018-06-11T22:29:11.889Z,64.90
2018-06-11T22:31:40.599Z,64.53
2018-06-11T22:34:09.279Z,64.00
2018-06-11T22:36:37.986Z,63.71
2018-06-11T22:39:08.005Z,63.15
2018-06-11T22:41:39.577Z,63.39
2018-06-11T22:44:08.357Z,63.62
2018-06-11T22:46:37.561Z,63.30
2018-06-11T22:49:07.537Z,63.45
2018-06-11T22:51:36.250Z,63.46
2018-06-11T22:54:09.166Z,63.52
2018-06-11T22:56:38.012Z,63.10
2018-06-11T22:59:06.723Z,63.40
2018-06-11T23:01:35.459Z,63.42
2018-06-11T23:04:04.280Z,63.64
2018-06-11T23:06:32.994Z,63.42
2018-06-11T23:09:01.781Z,63.64
2018-06-11T23:11:30.520Z,63.94
2018-06-11T23:13:59.227Z,63.47
2018-06-11T23:16:27.928Z,63.74
2018-06-11T23:18:56.724Z,63.93
2018-06-11T23:21:25.449Z,63.97
2018-06-11T23:23:54.138Z,63.68
2018-06-11T23:26:22.833Z,63.58
2018-06-11T23:28:51.624Z,63.86
2018-06-11T23:31:20.784Z,63.84
2018-06-11T23:33:49.501Z,63.74
2018-06-11T23:36:18.250Z,63.80
2018-06-11T23:38:46.983Z,63.87
2018-06-11T23:41:15.694Z,63.82
2018-06-11T23:43:44.399Z,64.29
2018-06-11T23:46:14.028Z,64.72
2018-06-11T23:48:42.773Z,64.41
2018-06-11T23:51:11.479Z,64.76
2018-06-11T23:53:40.240Z,65.15
2018-06-11T23:56:08.939Z,65.08
2018-06-11T23:58:37.730Z,65.22
